Time,TemperatureF,DewpointF,PressureIn,WindDirection,WindDirectionDegrees,WindSpeedMPH,WindSpeedGustMPH,Humidity,HourlyPrecipIn,Conditions,Clouds,dailyrainin,SolarRadiationWatts/m^2,SoftwareType,DateUTC
2013-07-18 00:52:00,65.0,41.0,-100.00,SSW,207,19.0,24.0,41,-99.99,,,0.17,0.000000,,2013-07-18 06:52:00,
2013-07-18 01:32:00,65.0,41.0,-100.00,SSW,207,19.0,24.0,41,-99.99,,,0.17,0.000000,,2013-07-18 07:32:00,
2013-07-18 01:42:00,65.0,41.0,-100.00,SSW,207,19.0,24.0,41,-99.99,,,0.17,0.000000,,2013-07-18 07:42:00,
2013-07-18 04:52:00,61.0,45.0,-100.00,WNW,292,18.0,28.0,56,-99.99,,,0.17,0.000000,,2013-07-18 10:52:00,
2013-07-18 05:22:00,61.0,45.0,-100.00,WNW,292,18.0,28.0,56,-99.99,,,0.17,0.000000,,2013-07-18 11:22:00,
2013-07-18 05:32:00,61.0,45.0,-100.00,WNW,292,18.0,28.0,56,-99.99,,,0.17,0.000000,,2013-07-18 11:32:00,
2013-07-18 05:43:00,61.0,45.0,-100.00,WNW,292,18.0,28.0,56,-99.99,,,0.17,0.000000,,2013-07-18 11:43:00,
2013-07-18 05:52:00,60.0,46.0,-100.00,WNW,283,22.0,35.0,59,0.00,,,0.17,1.000000,,2013-07-18 11:52:00,
2013-07-18 06:22:00,60.0,46.0,-100.00,WNW,283,22.0,35.0,59,0.00,,,0.17,1.000000,,2013-07-18 12:22:00,
2013-07-18 06:42:00,60.0,46.0,-100.00,WNW,283,22.0,35.0,59,0.00,,,0.17,1.000000,,2013-07-18 12:42:00,
2013-07-18 06:52:00,58.0,47.0,-100.00,WNW,293,19.0,33.0,66,0.00,,,-99.99,84.000000,,2013-07-18 12:52:00,
2013-07-18 07:11:00,58.0,47.0,-100.00,WNW,293,19.0,33.0,66,0.00,,,-99.99,84.000000,,2013-07-18 13:11:00,
2013-07-18 07:22:00,58.0,47.0,-100.00,WNW,293,19.0,33.0,66,0.00,,,-99.99,84.000000,,2013-07-18 13:22:00,
2013-07-18 07:32:00,58.0,47.0,-100.00,WNW,293,19.0,33.0,66,0.00,,,-99.99,84.000000,,2013-07-18 13:32:00,
2013-07-18 07:43:00,58.0,47.0,-100.00,WNW,293,19.0,33.0,66,0.00,,,-99.99,84.000000,,2013-07-18 13:43:00,
2013-07-18 07:52:00,59.0,46.0,-100.00,WNW,291,14.0,27.0,62,0.00,,,0.11,281.000000,,2013-07-18 13:52:00,
2013-07-18 08:11:00,59.0,46.0,-100.00,WNW,291,14.0,27.0,62,0.00,,,0.11,281.000000,,2013-07-18 14:11:00,
2013-07-18 08:22:00,59.0,46.0,-100.00,WNW,291,14.0,27.0,62,0.00,,,0.11,281.000000,,2013-07-18 14:22:00,
2013-07-18 08:33:00,59.0,46.0,-100.00,WNW,291,14.0,27.0,62,0.00,,,0.11,281.000000,,2013-07-18 14:33:00,
2013-07-18 08:43:00,59.0,46.0,-100.00,WNW,291,14.0,27.0,62,0.00,,,0.11,281.000000,,2013-07-18 14:43:00,
2013-07-18 08:52:00,61.0,44.0,-100.00,WNW,296,15.0,24.0,54,0.00,,,0.10,495.000000,,2013-07-18 14:52:00,
2013-07-18 09:22:00,61.0,44.0,-100.00,WNW,296,15.0,24.0,54,0.00,,,0.10,495.000000,,2013-07-18 15:22:00,
2013-07-18 09:32:00,61.0,44.0,-100.00,WNW,296,15.0,24.0,54,0.00,,,0.10,495.000000,,2013-07-18 15:32:00,
2013-07-18 09:42:00,61.0,44.0,-100.00,WNW,296,15.0,24.0,54,0.00,,,0.10,495.000000,,2013-07-18 15:42:00,
2013-07-18 09:52:00,62.0,45.0,-100.00,WNW,286,11.0,24.0,54,0.00,,,-99.99,710.000000,,2013-07-18 15:52:00,
2013-07-18 10:11:00,62.0,45.0,-100.00,WNW,286,11.0,24.0,54,0.00,,,-99.99,710.000000,,2013-07-18 16:11:00,
2013-07-18 10:22:00,62.0,45.0,-100.00,WNW,286,11.0,24.0,54,0.00,,,-99.99,710.000000,,2013-07-18 16:22:00,
2013-07-18 10:32:00,62.0,45.0,-100.00,WNW,286,11.0,24.0,54,0.00,,,-99.99,710.000000,,2013-07-18 16:32:00,
2013-07-18 10:42:00,62.0,45.0,-100.00,WNW,286,11.0,24.0,54,0.00,,,-99.99,710.000000,,2013-07-18 16:42:00,
2013-07-18 10:52:00,65.0,45.0,-100.00,West,270,14.0,25.0,49,0.00,,,0.09,893.000000,,2013-07-18 16:52:00,
2013-07-18 11:11:00,65.0,45.0,-100.00,West,270,14.0,25.0,49,0.00,,,0.09,893.000000,,2013-07-18 17:11:00,
2013-07-18 11:22:00,65.0,45.0,-100.00,West,270,14.0,25.0,49,0.00,,,0.09,893.000000,,2013-07-18 17:22:00,
2013-07-18 11:33:00,65.0,45.0,-100.00,West,270,14.0,25.0,49,0.00,,,0.09,893.000000,,2013-07-18 17:33:00,
2013-07-18 11:43:00,65.0,45.0,-100.00,West,270,14.0,25.0,49,0.00,,,0.09,893.000000,,2013-07-18 17:43:00,
2013-07-18 11:52:00,68.0,39.0,-100.00,WNW,288,15.0,28.0,34,0.00,,,0.09,1029.000000,,2013-07-18 17:52:00,
2013-07-18 12:11:00,68.0,39.0,-100.00,WNW,288,15.0,28.0,34,0.00,,,0.09,1029.000000,,2013-07-18 18:11:00,
2013-07-18 12:22:00,68.0,39.0,-100.00,WNW,288,15.0,28.0,34,0.00,,,0.09,1029.000000,,2013-07-18 18:22:00,
2013-07-18 12:32:00,68.0,39.0,-100.00,WNW,288,15.0,28.0,34,0.00,,,0.09,1029.000000,,2013-07-18 18:32:00,
2013-07-18 12:43:00,68.0,39.0,-100.00,WNW,288,15.0,28.0,34,0.00,,,0.09,1029.000000,,2013-07-18 18:43:00,
2013-07-18 12:52:00,71.0,41.0,-100.00,WNW,290,10.0,33.0,34,0.00,,,0.09,1119.000000,,2013-07-18 18:52:00,
2013-07-18 13:11:00,71.0,41.0,-100.00,WNW,290,10.0,33.0,34,0.00,,,0.09,1119.000000,,2013-07-18 19:11:00,
2013-07-18 13:22:00,71.0,41.0,-100.00,WNW,290,10.0,33.0,34,0.00,,,0.09,1119.000000,,2013-07-18 19:22:00,
2013-07-18 13:32:00,71.0,41.0,-100.00,WNW,290,10.0,33.0,34,0.00,,,0.09,1119.000000,,2013-07-18 19:32:00,
2013-07-18 13:43:00,71.0,41.0,-100.00,WNW,290,10.0,33.0,34,0.00,,,0.09,1119.000000,,2013-07-18 19:43:00,
2013-07-18 13:52:00,70.0,37.0,-100.00,WNW,296,13.0,32.0,30,0.00,,,0.09,1155.000000,,2013-07-18 19:52:00,
2013-07-18 14:11:00,70.0,37.0,-100.00,WNW,296,13.0,32.0,30,0.00,,,0.09,1155.000000,,2013-07-18 20:11:00,
2013-07-18 14:22:00,70.0,37.0,-100.00,WNW,296,13.0,32.0,30,0.00,,,0.09,1155.000000,,2013-07-18 20:22:00,
2013-07-18 14:32:00,70.0,37.0,-100.00,WNW,296,13.0,32.0,30,0.00,,,0.09,1155.000000,,2013-07-18 20:32:00,
2013-07-18 14:43:00,70.0,37.0,-100.00,WNW,296,13.0,32.0,30,0.00,,,0.09,1155.000000,,2013-07-18 20:43:00,
2013-07-18 14:52:00,72.0,41.0,-100.00,WNW,297,14.0,28.0,32,0.00,,,0.09,1121.000000,,2013-07-18 20:52:00,
2013-07-18 15:11:00,72.0,41.0,-100.00,WNW,297,14.0,28.0,32,0.00,,,0.09,1121.000000,,2013-07-18 21:11:00,
2013-07-18 15:22:00,72.0,41.0,-100.00,WNW,297,14.0,28.0,32,0.00,,,0.09,1121.000000,,2013-07-18 21:22:00,
2013-07-18 15:32:00,72.0,41.0,-100.00,WNW,297,14.0,28.0,32,0.00,,,0.09,1121.000000,,2013-07-18 21:32:00,
2013-07-18 15:43:00,72.0,41.0,-100.00,WNW,297,14.0,28.0,32,0.00,,,0.09,1121.000000,,2013-07-18 21:43:00,
2013-07-18 15:52:00,74.0,41.0,-100.00,WNW,290,10.0,26.0,31,0.00,,,0.09,1033.000000,,2013-07-18 21:52:00,
2013-07-18 16:11:00,74.0,41.0,-100.00,WNW,290,10.0,26.0,31,0.00,,,0.09,1033.000000,,2013-07-18 22:11:00,
2013-07-18 16:22:00,74.0,41.0,-100.00,WNW,290,10.0,26.0,31,0.00,,,0.09,1033.000000,,2013-07-18 22:22:00,
2013-07-18 16:32:00,74.0,41.0,-100.00,WNW,290,10.0,26.0,31,0.00,,,0.09,1033.000000,,2013-07-18 22:32:00,
2013-07-18 16:43:00,74.0,41.0,-100.00,WNW,290,10.0,26.0,31,0.00,,,0.09,1033.000000,,2013-07-18 22:43:00,
2013-07-18 16:52:00,74.0,41.0,-100.00,WNW,298,11.0,22.0,30,0.00,,,0.09,916.000000,,2013-07-18 22:52:00,
2013-07-18 17:11:00,74.0,41.0,-100.00,WNW,298,11.0,22.0,30,0.00,,,0.09,916.000000,,2013-07-18 23:11:00,
2013-07-18 17:22:00,74.0,41.0,-100.00,WNW,298,11.0,22.0,30,0.00,,,0.09,916.000000,,2013-07-18 23:22:00,
2013-07-18 17:32:00,74.0,41.0,-100.00,WNW,298,11.0,22.0,30,0.00,,,0.09,916.000000,,2013-07-18 23:32:00,
2013-07-18 17:42:00,74.0,41.0,-100.00,WNW,298,11.0,22.0,30,0.00,,,0.09,916.000000,,2013-07-18 23:42:00,
2013-07-18 17:52:00,73.0,40.0,-100.00,WNW,297,13.0,23.0,30,0.00,,,0.09,714.000000,,2013-07-18 23:52:00,
2013-07-18 18:11:00,73.0,40.0,-100.00,WNW,297,13.0,23.0,30,0.00,,,0.09,714.000000,,2013-07-19 00:11:00,
2013-07-18 18:22:00,73.0,40.0,-100.00,WNW,297,13.0,23.0,30,0.00,,,0.09,714.000000,,2013-07-19 00:22:00,
2013-07-18 18:32:00,73.0,40.0,-100.00,WNW,297,13.0,23.0,30,0.00,,,0.09,714.000000,,2013-07-19 00:32:00,
2013-07-18 18:43:00,73.0,40.0,-100.00,WNW,297,13.0,23.0,30,0.00,,,0.09,714.000000,,2013-07-19 00:43:00,
2013-07-18 18:52:00,68.0,36.0,-100.00,South,170,20.0,30.0,31,0.00,,,0.09,506.000000,,2013-07-19 00:52:00,
2013-07-18 19:11:00,68.0,36.0,-100.00,South,170,20.0,30.0,31,0.00,,,0.09,506.000000,,2013-07-19 01:11:00,
2013-07-18 19:22:00,68.0,36.0,-100.00,South,170,20.0,30.0,31,0.00,,,0.09,506.000000,,2013-07-19 01:22:00,
2013-07-18 19:32:00,68.0,36.0,-100.00,South,170,20.0,30.0,31,0.00,,,0.09,506.000000,,2013-07-19 01:32:00,
2013-07-18 19:42:00,68.0,36.0,-100.00,South,170,20.0,30.0,31,0.00,,,0.09,506.000000,,2013-07-19 01:42:00,
2013-07-18 19:52:00,67.0,39.0,-100.00,SSE,161,18.0,29.0,36,0.00,,,0.09,229.000000,,2013-07-19 01:52:00,
2013-07-18 20:11:00,67.0,39.0,-100.00,SSE,161,18.0,29.0,36,0.00,,,0.09,229.000000,,2013-07-19 02:11:00,
2013-07-18 20:22:00,67.0,39.0,-100.00,SSE,161,18.0,29.0,36,0.00,,,0.09,229.000000,,2013-07-19 02:22:00,
2013-07-18 20:32:00,67.0,39.0,-100.00,SSE,161,18.0,29.0,36,0.00,,,0.09,229.000000,,2013-07-19 02:32:00,
2013-07-18 20:42:00,67.0,39.0,-100.00,SSE,161,18.0,29.0,36,0.00,,,0.09,229.000000,,2013-07-19 02:42:00,
2013-07-18 20:52:00,64.0,40.0,-100.00,SSW,197,9.0,24.0,42,0.00,,,0.09,25.000000,,2013-07-19 02:52:00,
2013-07-18 21:11:00,64.0,40.0,-100.00,SSW,197,9.0,24.0,42,0.00,,,0.09,25.000000,,2013-07-19 03:11:00,
2013-07-18 21:22:00,64.0,40.0,-100.00,SSW,197,9.0,24.0,42,0.00,,,0.09,25.000000,,2013-07-19 03:22:00,
2013-07-18 21:32:00,64.0,40.0,-100.00,SSW,197,9.0,24.0,42,0.00,,,0.09,25.000000,,2013-07-19 03:32:00,
2013-07-18 21:42:00,64.0,40.0,-100.00,SSW,197,9.0,24.0,42,0.00,,,0.09,25.000000,,2013-07-19 03:42:00,
2013-07-18 21:52:00,61.0,38.0,-100.00,WSW,244,10.0,15.0,42,0.00,,,0.01,3.000000,,2013-07-19 03:52:00,
2013-07-18 22:12:00,61.0,38.0,-100.00,WSW,244,10.0,15.0,42,0.00,,,0.01,3.000000,,2013-07-19 04:12:00,
2013-07-18 22:22:00,61.0,38.0,-100.00,WSW,244,10.0,15.0,42,0.00,,,0.01,3.000000,,2013-07-19 04:22:00,
2013-07-18 22:33:00,61.0,38.0,-100.00,WSW,244,10.0,15.0,42,0.00,,,0.01,3.000000,,2013-07-19 04:33:00,
2013-07-18 22:43:00,61.0,38.0,-100.00,WSW,244,10.0,15.0,42,0.00,,,0.01,3.000000,,2013-07-19 04:43:00,
2013-07-18 22:52:00,60.0,38.0,-100.00,NNE,16,7.0,14.0,44,0.00,,,0.00,0.000000,,2013-07-19 04:52:00,
2013-07-18 23:11:00,60.0,38.0,-100.00,NNE,16,7.0,14.0,44,0.00,,,0.00,0.000000,,2013-07-19 05:11:00,
2013-07-18 23:22:00,60.0,38.0,-100.00,NNE,16,7.0,14.0,44,0.00,,,0.00,0.000000,,2013-07-19 05:22:00,
2013-07-18 23:32:00,60.0,38.0,-100.00,NNE,16,7.0,14.0,44,0.00,,,0.00,0.000000,,2013-07-19 05:32:00,
2013-07-18 23:43:00,60.0,38.0,-100.00,NNE,16,7.0,14.0,44,0.00,,,0.00,0.000000,,2013-07-19 05:43:00,